createdAt,value
2022-10-30T00:01:19.046Z,14.43
2022-10-30T00:06:21.675Z,14.34
2022-10-30T00:11:24.300Z,14.32
2022-10-30T00:16:28.282Z,14.34
2022-10-30T00:21:30.851Z,14.39
2022-10-30T00:26:33.621Z,14.39
2022-10-30T00:31:38.012Z,14.41
2022-10-30T00:36:40.625Z,14.35
2022-10-30T00:41:43.221Z,14.41
2022-10-30T00:46:47.685Z,14.44
2022-10-30T00:51:53.502Z,14.46
2022-10-30T00:56:56.988Z,14.39
2022-10-30T01:02:02.538Z,14.27
2022-10-30T01:07:10.711Z,14.29
2022-10-30T01:12:13.449Z,14.28
2022-10-30T01:17:45.764Z,14.22
2022-10-30T01:22:58.236Z,14.19
2022-10-30T01:28:06.356Z,14.16
2022-10-30T01:33:19.840Z,14.11
2022-10-30T01:38:25.821Z,14.14
2022-10-30T01:43:29.593Z,13.98
2022-10-30T01:48:57.078Z,14.06
2022-10-30T01:54:05.138Z,14.12
2022-10-30T01:59:12.478Z,14.14
2022-10-30T02:04:16.910Z,14.25
2022-10-30T02:09:19.650Z,14.23
2022-10-30T02:14:29.805Z,14.23
2022-10-30T02:19:33.777Z,14.22
2022-10-30T02:24:39.879Z,14.19
2022-10-30T02:29:42.986Z,14.05
2022-10-30T02:34:45.656Z,14.14
2022-10-30T02:39:50.993Z,14.13
2022-10-30T02:44:53.622Z,14.18
2022-10-30T02:49:56.264Z,14.08
2022-10-30T02:55:00.202Z,13.96
2022-10-30T03:00:05.224Z,13.80
2022-10-30T03:05:08.473Z,13.75
2022-10-30T03:10:12.434Z,13.87
2022-10-30T03:15:15.157Z,13.74
2022-10-30T03:20:17.978Z,13.74
2022-10-30T03:25:23.767Z,13.62
2022-10-30T03:30:30.058Z,13.65
2022-10-30T03:35:37.437Z,13.60
2022-10-30T03:40:41.935Z,13.49
2022-10-30T03:45:47.711Z,13.54
2022-10-30T03:50:50.922Z,13.44
2022-10-30T03:55:58.674Z,13.53
2022-10-30T04:01:02.304Z,13.42
2022-10-30T04:06:06.842Z,13.35
2022-10-30T04:11:12.092Z,13.16
2022-10-30T04:16:15.279Z,13.22
2022-10-30T04:21:20.296Z,13.06
2022-10-30T04:26:25.088Z,13.06
2022-10-30T04:31:27.687Z,13.05
2022-10-30T04:36:33.808Z,13.12
2022-10-30T04:41:37.871Z,12.98
2022-10-30T04:46:48.788Z,12.96
2022-10-30T04:51:51.417Z,12.86
2022-10-30T04:56:55.429Z,12.90
2022-10-30T05:01:58.444Z,12.88
2022-10-30T05:07:02.099Z,12.94
2022-10-30T05:12:06.664Z,12.80
2022-10-30T05:17:16.900Z,12.76
2022-10-30T05:22:19.557Z,12.64
2022-10-30T05:27:23.505Z,12.62
2022-10-30T05:32:26.267Z,12.56
2022-10-30T05:37:30.834Z,12.59
2022-10-30T05:42:35.154Z,12.59
2022-10-30T05:47:40.133Z,12.59
2022-10-30T05:52:42.775Z,12.60
2022-10-30T05:57:47.470Z,12.66
2022-10-30T06:02:50.177Z,12.50
2022-10-30T06:07:55.709Z,12.45
2022-10-30T06:13:02.002Z,12.54
2022-10-30T06:18:31.154Z,12.64
2022-10-30T06:23:42.544Z,12.60
2022-10-30T06:29:02.353Z,12.59
2022-10-30T06:34:06.162Z,12.47
2022-10-30T06:39:10.527Z,12.29
2022-10-30T06:44:21.207Z,12.37
2022-10-30T06:49:23.813Z,12.36
2022-10-30T06:54:27.559Z,12.46
2022-10-30T06:59:37.588Z,12.58
2022-10-30T07:04:58.934Z,12.57
2022-10-30T07:10:02.202Z,12.51
2022-10-30T07:15:24.492Z,12.77
2022-10-30T07:20:54.850Z,12.81
2022-10-30T07:26:03.343Z,12.84
2022-10-30T07:31:12.980Z,12.80
2022-10-30T07:36:36.654Z,12.97
2022-10-30T07:41:50.026Z,13.02
2022-10-30T07:47:20.188Z,12.99
2022-10-30T07:52:46.044Z,13.01
2022-10-30T07:57:49.056Z,13.46
2022-10-30T08:03:31.375Z,13.42
2022-10-30T08:08:54.256Z,13.43
2022-10-30T08:14:00.527Z,13.85
2022-10-30T08:19:04.897Z,13.76
2022-10-30T08:24:08.337Z,13.97
2022-10-30T08:29:11.104Z,14.25
2022-10-30T08:34:15.804Z,14.52
2022-10-30T08:39:23.410Z,14.75
2022-10-30T08:44:31.733Z,14.66
2022-10-30T08:49:54.488Z,14.73
2022-10-30T08:55:01.071Z,15.12
2022-10-30T09:00:06.862Z,15.26
2022-10-30T09:05:33.842Z,15.40
2022-10-30T09:10:57.026Z,15.70
2022-10-30T09:16:01.064Z,15.92
2022-10-30T09:21:07.011Z,15.74
2022-10-30T09:26:18.420Z,15.88
2022-10-30T09:31:32.301Z,15.97
2022-10-30T09:36:36.290Z,16.02
2022-10-30T09:41:53.560Z,16.37
2022-10-30T09:47:09.671Z,16.59
2022-10-30T09:52:29.320Z,16.59
2022-10-30T09:57:40.264Z,16.75
2022-10-30T10:02:54.670Z,17.06
2022-10-30T10:08:02.148Z,17.14
2022-10-30T10:13:47.214Z,17.38
2022-10-30T10:18:50.211Z,17.49
2022-10-30T10:23:55.824Z,17.65
2022-10-30T10:29:08.789Z,17.64
2022-10-30T10:34:27.966Z,17.86
2022-10-30T10:39:43.333Z,17.64
2022-10-30T10:44:52.702Z,17.72
2022-10-30T10:50:07.082Z,17.75
2022-10-30T10:55:16.633Z,17.92
2022-10-30T11:00:22.483Z,18.03
2022-10-30T11:05:33.259Z,18.05
2022-10-30T11:10:37.279Z,18.24
2022-10-30T11:15:48.724Z,18.54
2022-10-30T11:20:58.134Z,18.40
2022-10-30T11:26:02.662Z,18.57
2022-10-30T11:31:21.312Z,18.31
2022-10-30T11:36:25.303Z,18.73
2022-10-30T11:41:29.278Z,18.57
2022-10-30T11:46:32.051Z,18.67
2022-10-30T11:51:37.440Z,18.71
2022-10-30T11:56:47.632Z,18.81
2022-10-30T12:02:01.778Z,18.96
2022-10-30T12:07:20.361Z,19.27
2022-10-30T12:12:26.491Z,19.33
2022-10-30T12:17:29.120Z,19.31
2022-10-30T12:22:33.232Z,19.40
2022-10-30T12:27:38.332Z,19.35
2022-10-30T12:32:46.886Z,19.38
2022-10-30T12:37:50.363Z,19.41
2022-10-30T12:42:58.539Z,19.68
2022-10-30T12:48:04.332Z,19.64
2022-10-30T12:53:09.859Z,19.55
2022-10-30T12:58:19.693Z,19.73
2022-10-30T13:03:27.285Z,19.71
2022-10-30T13:08:33.645Z,19.69
2022-10-30T13:13:38.227Z,19.71
2022-10-30T13:18:40.893Z,19.81
2022-10-30T13:23:49.157Z,19.89
2022-10-30T13:28:57.018Z,19.85
2022-10-30T13:34:04.141Z,19.71
2022-10-30T13:39:19.143Z,19.72
2022-10-30T13:44:30.506Z,19.75
2022-10-30T13:49:43.831Z,19.74
2022-10-30T13:54:51.005Z,19.75
2022-10-30T14:00:00.472Z,19.69
2022-10-30T14:05:13.597Z,19.64
2022-10-30T14:10:22.453Z,19.57
2022-10-30T14:15:34.182Z,19.55
2022-10-30T14:20:36.797Z,19.55
2022-10-30T14:25:39.619Z,19.50
2022-10-30T14:30:45.674Z,19.35
2022-10-30T14:36:14.950Z,19.40
2022-10-30T14:41:40.242Z,19.25
2022-10-30T14:46:57.773Z,19.24
2022-10-30T14:52:12.756Z,19.28
2022-10-30T14:57:22.961Z,19.08
2022-10-30T15:02:38.155Z,19.00
2022-10-30T15:07:46.533Z,18.94
2022-10-30T15:13:08.326Z,18.88
2022-10-30T15:18:16.884Z,18.69
2022-10-30T15:23:24.037Z,18.69
2022-10-30T15:28:30.303Z,18.50
2022-10-30T15:33:37.609Z,18.43
2022-10-30T15:38:40.200Z,18.31
2022-10-30T15:43:43.954Z,18.10
2022-10-30T15:48:48.643Z,18.07
2022-10-30T15:53:53.477Z,17.96
2022-10-30T15:58:58.528Z,17.79
2022-10-30T16:04:02.531Z,17.77
2022-10-30T16:09:05.667Z,17.60
2022-10-30T16:14:09.037Z,17.57
2022-10-30T16:19:19.416Z,17.47
2022-10-30T16:24:23.274Z,17.29
2022-10-30T16:29:27.374Z,17.20
2022-10-30T16:34:34.806Z,17.17
2022-10-30T16:39:38.297Z,17.12
2022-10-30T16:44:40.923Z,16.99
2022-10-30T16:49:49.595Z,16.88
2022-10-30T16:54:59.149Z,16.73
2022-10-30T17:00:02.654Z,16.63
2022-10-30T17:05:11.682Z,16.69
2022-10-30T17:10:34.478Z,16.57
2022-10-30T17:15:37.513Z,16.47
2022-10-30T17:20:41.510Z,16.53
2022-10-30T17:25:44.313Z,16.52
2022-10-30T17:30:47.811Z,16.44
2022-10-30T17:40:54.840Z,16.31
2022-10-30T17:45:57.596Z,16.18
2022-10-30T17:51:01.618Z,16.09
2022-10-30T17:56:07.773Z,16.07
2022-10-30T18:01:12.457Z,16.03
2022-10-30T18:06:19.192Z,15.92
2022-10-30T18:11:23.283Z,15.87
2022-10-30T18:16:26.076Z,15.69
2022-10-30T18:21:31.228Z,15.50
2022-10-30T18:26:37.753Z,15.60
2022-10-30T18:31:43.013Z,15.66
2022-10-30T18:36:46.981Z,15.63
2022-10-30T18:41:50.045Z,15.52
2022-10-30T18:46:52.625Z,15.54
2022-10-30T18:51:56.581Z,15.50
2022-10-30T18:56:59.160Z,15.43
2022-10-30T19:02:01.859Z,15.35
2022-10-30T19:07:05.867Z,15.26
2022-10-30T19:12:10.767Z,15.20
2022-10-30T19:17:13.425Z,15.13
2022-10-30T19:22:17.354Z,15.08
2022-10-30T19:27:21.049Z,14.99
2022-10-30T19:32:23.654Z,15.00
2022-10-30T19:37:27.577Z,14.96
2022-10-30T19:42:30.150Z,14.79
2022-10-30T19:47:32.743Z,14.87
2022-10-30T19:52:37.161Z,14.79
2022-10-30T19:57:40.279Z,14.75
2022-10-30T20:02:44.286Z,14.76
2022-10-30T20:08:00.295Z,14.76
2022-10-30T20:13:03.153Z,14.72
2022-10-30T20:18:14.264Z,14.41
2022-10-30T20:23:20.074Z,14.45
2022-10-30T20:28:24.249Z,14.26
2022-10-30T20:33:27.129Z,14.27
2022-10-30T20:38:33.487Z,14.22
2022-10-30T20:43:37.718Z,14.22
2022-10-30T20:48:40.343Z,14.20
2022-10-30T20:53:44.370Z,14.14
2022-10-30T20:58:46.946Z,14.12
2022-10-30T21:03:50.320Z,14.03
2022-10-30T21:08:54.242Z,13.98
2022-10-30T21:13:57.585Z,13.91
2022-10-30T21:19:00.200Z,13.90
2022-10-30T21:24:04.369Z,13.76
2022-10-30T21:29:06.950Z,13.75
2022-10-30T21:34:09.540Z,13.87
2022-10-30T21:39:13.460Z,13.84
2022-10-30T21:44:16.367Z,13.90
2022-10-30T21:49:19.378Z,14.04
2022-10-30T21:54:23.604Z,14.13
2022-10-30T21:59:26.246Z,14.08
2022-10-30T22:04:29.402Z,14.00
2022-10-30T22:09:33.319Z,13.88
2022-10-30T22:14:35.894Z,13.89
2022-10-30T22:19:38.462Z,13.90
2022-10-30T22:24:42.368Z,13.79
2022-10-30T22:29:44.941Z,13.67
2022-10-30T22:34:47.523Z,13.64
2022-10-30T22:39:51.474Z,13.67
2022-10-30T22:44:54.548Z,13.63
2022-10-30T22:49:57.130Z,13.53
2022-10-30T22:55:01.043Z,13.45
2022-10-30T23:00:03.635Z,13.43
2022-10-30T23:05:06.626Z,13.39
2022-10-30T23:10:10.846Z,13.40
2022-10-30T23:15:13.402Z,13.44
2022-10-30T23:20:16.071Z,13.32
2022-10-30T23:25:20.026Z,13.38
2022-10-30T23:30:22.631Z,13.32
2022-10-30T23:35:25.203Z,13.32
2022-10-30T23:40:29.124Z,13.30
2022-10-30T23:45:31.775Z,13.24
2022-10-30T23:50:35.715Z,13.18
2022-10-30T23:55:39.620Z,13.16
